createdAt,value
2023-01-28T00:01:33.512Z,3.93
2023-01-28T00:04:01.153Z,4.00
2023-01-28T00:06:27.575Z,4.13
2023-01-28T00:08:56.029Z,3.90
2023-01-28T00:11:22.976Z,4.27
2023-01-28T00:13:54.120Z,3.90
2023-01-28T00:16:22.599Z,4.60
2023-01-28T00:18:49.099Z,3.87
2023-01-28T00:21:16.052Z,3.93
2023-01-28T00:23:47.135Z,4.00
2023-01-28T00:26:14.964Z,4.03
2023-01-28T00:28:42.812Z,3.63
2023-01-28T00:31:20.760Z,3.83
2023-01-28T00:33:50.006Z,3.70
2023-01-28T00:36:18.081Z,3.40
2023-01-28T00:38:50.475Z,4.00
2023-01-28T00:41:18.823Z,3.23
2023-01-28T00:43:45.445Z,3.87
2023-01-28T00:46:13.840Z,3.50
2023-01-28T00:48:41.761Z,3.60
2023-01-28T00:51:09.473Z,3.83
2023-01-28T00:53:38.320Z,3.60
2023-01-28T00:56:06.484Z,3.80
2023-01-28T00:58:33.916Z,3.60
2023-01-28T01:01:15.496Z,4.00
2023-01-28T01:03:42.186Z,3.97
2023-01-28T01:06:10.136Z,3.50
2023-01-28T01:08:39.913Z,3.70
2023-01-28T01:11:07.975Z,3.67
2023-01-28T01:13:37.295Z,3.47
2023-01-28T01:16:12.416Z,3.90
2023-01-28T01:18:42.282Z,3.93
2023-01-28T01:21:14.441Z,3.50
2023-01-28T01:23:41.418Z,3.83
2023-01-28T01:26:08.466Z,3.13
2023-01-28T01:28:35.393Z,3.67
2023-01-28T01:31:05.735Z,4.03
2023-01-28T01:33:32.673Z,3.80
2023-01-28T01:35:59.763Z,3.93
2023-01-28T01:38:27.473Z,4.57
2023-01-28T01:40:58.683Z,3.50
2023-01-28T01:43:26.332Z,3.80
2023-01-28T01:46:00.862Z,3.83
2023-01-28T01:48:33.817Z,4.10
2023-01-28T01:51:24.246Z,3.50
2023-01-28T01:53:54.225Z,3.50
2023-01-28T01:56:24.635Z,2.90
2023-01-28T01:58:55.486Z,3.20
2023-01-28T02:01:27.358Z,3.10
2023-01-28T02:04:00.945Z,2.63
2023-01-28T02:06:28.799Z,2.83
2023-01-28T02:08:56.070Z,3.10
2023-01-28T02:11:27.884Z,2.93
2023-01-28T02:13:57.316Z,2.70
2023-01-28T02:16:25.926Z,2.90
2023-01-28T02:18:52.481Z,2.57
2023-01-28T02:22:02.477Z,2.97
2023-01-28T02:24:31.914Z,2.57
2023-01-28T02:27:34.283Z,2.57
2023-01-28T02:30:21.053Z,2.77
2023-01-28T02:32:59.506Z,2.80
2023-01-28T02:35:41.253Z,2.70
2023-01-28T02:38:22.587Z,2.47
2023-01-28T02:41:05.737Z,2.73
2023-01-28T02:43:35.032Z,2.77
2023-01-28T02:46:36.622Z,2.77
2023-01-28T02:49:09.075Z,2.63
2023-01-28T02:52:01.190Z,2.80
2023-01-28T02:54:54.309Z,2.43
2023-01-28T02:57:38.820Z,2.80
2023-01-28T03:00:13.164Z,2.57
2023-01-28T03:02:58.332Z,2.80
2023-01-28T03:06:03.009Z,2.73
2023-01-28T03:08:55.409Z,2.67
2023-01-28T03:11:40.854Z,2.43
2023-01-28T03:14:27.156Z,2.77
2023-01-28T03:17:15.936Z,2.90
2023-01-28T03:20:00.904Z,3.07
2023-01-28T03:22:51.425Z,2.77
2023-01-28T03:25:40.223Z,2.77
2023-01-28T03:28:30.521Z,3.00
2023-01-28T03:31:23.136Z,2.77
2023-01-28T03:34:10.322Z,2.67
2023-01-28T03:37:09.781Z,2.77
2023-01-28T03:39:37.713Z,3.30
2023-01-28T03:42:05.918Z,3.40
2023-01-28T03:44:51.342Z,3.33
2023-01-28T03:47:20.108Z,3.13
2023-01-28T03:49:51.572Z,3.70
2023-01-28T03:52:24.028Z,3.70
2023-01-28T03:54:52.784Z,4.10
2023-01-28T03:57:22.138Z,4.30
2023-01-28T03:59:52.612Z,3.87
2023-01-28T04:02:21.663Z,4.10
2023-01-28T04:04:50.025Z,4.23
2023-01-28T04:07:16.937Z,4.33
2023-01-28T04:09:44.237Z,4.53
2023-01-28T04:12:11.001Z,4.07
2023-01-28T04:14:37.475Z,4.60
2023-01-28T04:17:03.958Z,4.90
2023-01-28T04:19:31.691Z,5.00
2023-01-28T04:21:58.115Z,4.70
2023-01-28T04:24:24.898Z,5.00
2023-01-28T04:26:51.313Z,4.60
2023-01-28T04:29:17.701Z,4.87
2023-01-28T04:31:44.161Z,5.57
2023-01-28T04:34:10.658Z,4.83
2023-01-28T04:36:37.513Z,5.73
2023-01-28T04:39:04.375Z,4.83
2023-01-28T04:41:30.791Z,5.03
2023-01-28T04:43:57.272Z,5.77
2023-01-28T04:46:23.744Z,5.50
2023-01-28T04:48:50.230Z,5.50
2023-01-28T04:51:16.614Z,4.97
2023-01-28T04:53:43.044Z,5.87
2023-01-28T04:56:09.445Z,5.50
2023-01-28T04:58:36.131Z,5.47
2023-01-28T05:01:02.688Z,5.70
2023-01-28T05:03:29.266Z,6.07
2023-01-28T05:05:55.655Z,6.80
2023-01-28T05:08:22.029Z,6.43
2023-01-28T05:10:48.471Z,6.00
2023-01-28T05:13:15.079Z,5.53
2023-01-28T05:15:41.512Z,5.37
2023-01-28T05:18:07.938Z,6.13
2023-01-28T05:20:34.395Z,6.30
2023-01-28T05:23:00.768Z,5.83
2023-01-28T05:25:27.644Z,4.83
2023-01-28T05:27:54.417Z,5.80
2023-01-28T05:30:21.345Z,5.00
2023-01-28T05:32:48.085Z,6.07
2023-01-28T05:35:15.206Z,6.10
2023-01-28T05:37:41.812Z,5.70
2023-01-28T05:40:10.695Z,5.57
2023-01-28T05:42:37.081Z,5.77
2023-01-28T05:45:03.855Z,6.00
2023-01-28T05:47:30.288Z,6.10
2023-01-28T05:49:56.673Z,6.73
2023-01-28T05:52:23.057Z,6.13
2023-01-28T05:54:49.495Z,5.50
2023-01-28T05:57:15.910Z,6.10
2023-01-28T05:59:42.323Z,5.63
2023-01-28T06:02:08.774Z,5.77
2023-01-28T06:04:35.194Z,6.10
2023-01-28T06:07:01.745Z,5.77
2023-01-28T06:09:28.117Z,5.80
2023-01-28T06:11:54.505Z,5.37
2023-01-28T06:14:20.981Z,5.50
2023-01-28T06:16:47.488Z,5.80
2023-01-28T06:19:13.968Z,5.90
2023-01-28T06:21:40.462Z,5.43
2023-01-28T06:24:07.007Z,4.53
2023-01-28T06:26:33.504Z,5.47
2023-01-28T06:29:00.106Z,6.17
2023-01-28T06:31:26.761Z,5.90
2023-01-28T06:33:53.129Z,5.53
2023-01-28T06:36:19.600Z,5.37
2023-01-28T06:38:46.536Z,5.30
2023-01-28T06:41:13.012Z,4.93
2023-01-28T06:43:39.406Z,5.67
2023-01-28T06:46:06.236Z,5.10
2023-01-28T06:48:32.711Z,5.03
2023-01-28T06:50:59.111Z,5.33
2023-01-28T06:53:25.537Z,5.40
2023-01-28T06:55:52.053Z,4.47
2023-01-28T06:58:18.489Z,4.93
2023-01-28T07:00:44.907Z,5.87
2023-01-28T07:03:11.300Z,5.20
2023-01-28T07:05:37.720Z,5.33
2023-01-28T07:08:04.298Z,4.90
2023-01-28T07:10:30.793Z,5.77
2023-01-28T07:12:57.360Z,5.53
2023-01-28T07:15:23.825Z,6.83
2023-01-28T07:17:52.362Z,5.60
2023-01-28T07:20:18.971Z,6.20
2023-01-28T07:22:46.307Z,5.27
2023-01-28T07:25:13.647Z,6.23
2023-01-28T07:27:40.268Z,6.20
2023-01-28T07:30:07.355Z,4.93
2023-01-28T07:32:34.114Z,6.40
2023-01-28T07:35:00.541Z,6.40
2023-01-28T07:37:26.934Z,7.43
2023-01-28T07:39:53.430Z,6.37
2023-01-28T07:42:20.020Z,6.50
2023-01-28T07:44:46.509Z,5.43
2023-01-28T07:47:13.016Z,5.87
2023-01-28T07:49:42.410Z,5.60
2023-01-28T07:52:09.239Z,6.07
2023-01-28T07:54:35.639Z,5.40
2023-01-28T07:57:02.220Z,6.80
2023-01-28T07:59:28.588Z,5.60
2023-01-28T08:01:55.215Z,4.47
2023-01-28T08:04:22.094Z,5.47
2023-01-28T08:06:48.796Z,6.10
2023-01-28T08:09:15.230Z,6.13
2023-01-28T08:11:42.418Z,5.90
2023-01-28T08:14:10.513Z,5.77
2023-01-28T08:16:36.860Z,5.63
2023-01-28T08:19:03.771Z,5.93
2023-01-28T08:21:30.202Z,6.00
2023-01-28T08:23:56.903Z,5.67
2023-01-28T08:26:23.791Z,5.50
2023-01-28T08:28:51.610Z,5.23
2023-01-28T08:31:18.344Z,6.13
2023-01-28T08:33:44.825Z,4.83
2023-01-28T08:36:11.316Z,6.00
2023-01-28T08:38:37.762Z,5.00
2023-01-28T08:41:04.401Z,6.63
2023-01-28T08:43:30.866Z,6.23
2023-01-28T08:45:57.415Z,6.73
2023-01-28T08:48:23.822Z,6.27
2023-01-28T08:50:50.829Z,6.37
2023-01-28T08:53:20.053Z,6.87
2023-01-28T08:55:47.128Z,6.90
2023-01-28T08:58:16.323Z,7.63
2023-01-28T09:00:44.679Z,7.40
2023-01-28T09:03:11.166Z,6.77
2023-01-28T09:05:38.553Z,7.53
2023-01-28T09:08:11.231Z,7.50
2023-01-28T09:10:38.041Z,6.90
2023-01-28T09:13:06.371Z,7.93
2023-01-28T09:15:33.395Z,7.23
2023-01-28T09:18:00.132Z,6.93
2023-01-28T09:20:27.439Z,7.30
2023-01-28T09:22:54.317Z,7.57
2023-01-28T09:25:21.066Z,7.43
2023-01-28T09:27:47.565Z,6.27
2023-01-28T09:30:14.682Z,7.13
2023-01-28T09:32:41.280Z,7.53
2023-01-28T09:35:08.080Z,7.23
2023-01-28T09:37:34.605Z,7.67
2023-01-28T09:40:01.526Z,7.60
2023-01-28T09:43:02.269Z,7.07
2023-01-28T09:45:42.705Z,8.20
2023-01-28T09:48:21.580Z,9.45
2023-01-28T09:50:52.828Z,7.83
2023-01-28T09:53:26.010Z,8.20
2023-01-28T09:56:02.147Z,7.50
2023-01-28T09:58:29.001Z,7.57
2023-01-28T10:01:24.498Z,7.10
2023-01-28T10:04:06.872Z,7.10
2023-01-28T10:06:48.720Z,6.53
2023-01-28T10:09:34.175Z,8.60
2023-01-28T10:12:09.676Z,7.93
2023-01-28T10:15:05.328Z,8.17
2023-01-28T10:17:36.975Z,7.77
2023-01-28T10:20:18.017Z,8.37
2023-01-28T10:22:49.812Z,7.87
2023-01-28T10:25:22.275Z,8.03
2023-01-28T10:27:50.593Z,8.50
2023-01-28T10:30:22.965Z,8.73
2023-01-28T10:33:06.081Z,7.90
2023-01-28T10:35:38.556Z,8.47
2023-01-28T10:38:08.833Z,7.63
2023-01-28T10:40:36.072Z,7.93
2023-01-28T10:43:02.947Z,7.77
2023-01-28T10:45:41.050Z,8.07
2023-01-28T10:48:13.355Z,7.63
2023-01-28T10:50:54.187Z,8.20
2023-01-28T10:53:20.651Z,6.97
2023-01-28T10:55:52.543Z,7.87
2023-01-28T10:58:23.777Z,7.73
2023-01-28T11:00:56.897Z,7.00
2023-01-28T11:03:27.366Z,7.67
2023-01-28T11:05:55.825Z,7.90
2023-01-28T11:08:24.444Z,7.73
2023-01-28T11:10:54.968Z,7.60
2023-01-28T11:13:29.524Z,7.77
2023-01-28T11:16:03.258Z,7.77
2023-01-28T11:18:38.468Z,7.43
2023-01-28T11:21:15.560Z,7.50
2023-01-28T11:23:49.811Z,7.70
2023-01-28T11:26:21.542Z,8.00
2023-01-28T11:28:48.219Z,7.43
2023-01-28T11:31:16.919Z,6.73
2023-01-28T11:33:50.127Z,8.00
2023-01-28T11:36:20.985Z,7.60
2023-01-28T11:39:11.606Z,7.10
2023-01-28T11:41:41.372Z,7.50
2023-01-28T11:44:25.025Z,6.93
2023-01-28T11:47:03.762Z,8.57
2023-01-28T11:49:49.058Z,8.87
2023-01-28T11:52:18.524Z,7.27
2023-01-28T11:55:17.223Z,8.47
2023-01-28T11:57:57.316Z,8.03
2023-01-28T12:00:57.764Z,7.93
2023-01-28T12:03:53.970Z,8.33
2023-01-28T12:06:26.937Z,8.30
2023-01-28T12:09:11.657Z,8.47
2023-01-28T12:12:11.768Z,8.20
2023-01-28T12:14:59.945Z,8.20
2023-01-28T12:17:49.488Z,7.37
2023-01-28T12:20:41.219Z,6.90
2023-01-28T12:23:23.626Z,7.87
2023-01-28T12:26:13.958Z,8.53
2023-01-28T12:28:52.505Z,7.57
2023-01-28T12:31:42.407Z,6.83
2023-01-28T12:34:08.807Z,6.73
2023-01-28T12:37:09.469Z,7.60
2023-01-28T12:39:51.210Z,7.93
2023-01-28T12:42:31.275Z,7.53
2023-01-28T12:45:10.988Z,6.90
2023-01-28T12:47:41.394Z,7.47
2023-01-28T12:50:20.062Z,6.63
2023-01-28T12:52:58.351Z,6.57
2023-01-28T12:55:44.104Z,6.70
2023-01-28T12:58:19.942Z,5.20
2023-01-28T13:00:51.366Z,5.10
2023-01-28T13:03:30.619Z,4.00
2023-01-28T13:06:02.310Z,3.70
2023-01-28T13:08:29.725Z,4.77
2023-01-28T13:10:58.807Z,4.30
2023-01-28T13:13:34.421Z,4.40
2023-01-28T13:16:02.480Z,4.90
2023-01-28T13:18:41.001Z,4.63
2023-01-28T13:21:32.468Z,4.87
2023-01-28T13:24:10.070Z,4.07
2023-01-28T13:26:48.916Z,5.17
2023-01-28T13:29:15.240Z,4.90
2023-01-28T13:31:44.335Z,5.13
2023-01-28T13:34:43.681Z,8.53
2023-01-28T13:37:23.966Z,6.13
2023-01-28T13:39:59.112Z,5.67
2023-01-28T13:42:25.400Z,5.20
2023-01-28T13:44:52.212Z,6.33
2023-01-28T13:47:33.220Z,5.90
2023-01-28T13:50:21.321Z,5.40
2023-01-28T13:52:57.904Z,6.37
2023-01-28T13:55:44.063Z,6.20
2023-01-28T13:58:36.679Z,4.93
2023-01-28T14:01:31.221Z,5.30
2023-01-28T14:04:52.414Z,5.93
2023-01-28T14:07:40.973Z,5.50
2023-01-28T14:10:26.217Z,5.60
2023-01-28T14:13:11.283Z,5.13
2023-01-28T14:16:14.196Z,5.90
2023-01-28T14:18:45.628Z,5.77
2023-01-28T14:21:15.684Z,4.77
2023-01-28T14:23:48.992Z,4.97
2023-01-28T14:26:34.131Z,5.20
2023-01-28T14:29:17.137Z,5.23
2023-01-28T14:31:43.794Z,5.47
2023-01-28T14:34:29.855Z,4.27
2023-01-28T14:37:18.803Z,4.53
2023-01-28T14:39:49.002Z,5.07
2023-01-28T14:42:27.652Z,5.13
2023-01-28T14:45:13.149Z,4.47
2023-01-28T14:48:06.093Z,4.07
2023-01-28T14:51:00.810Z,4.67
2023-01-28T14:54:04.928Z,3.67
2023-01-28T14:57:07.227Z,4.43
2023-01-28T14:59:43.766Z,4.30
2023-01-28T15:02:19.573Z,4.13
2023-01-28T15:04:47.486Z,4.30
2023-01-28T15:07:22.490Z,4.07
2023-01-28T15:10:00.575Z,3.97
2023-01-28T15:12:27.467Z,3.57
2023-01-28T15:14:54.026Z,4.00
2023-01-28T15:17:27.382Z,4.30
2023-01-28T15:19:56.840Z,3.83
2023-01-28T15:22:27.994Z,4.30
2023-01-28T15:24:56.183Z,3.77
2023-01-28T15:27:30.348Z,3.83
2023-01-28T15:29:59.394Z,4.30
2023-01-28T15:32:28.508Z,3.50
2023-01-28T15:34:55.485Z,3.53
2023-01-28T15:37:22.651Z,3.77
2023-01-28T15:39:59.775Z,3.77
2023-01-28T15:42:29.280Z,3.87
2023-01-28T15:44:59.332Z,3.83
2023-01-28T15:47:29.481Z,3.37
2023-01-28T15:49:59.499Z,3.53
2023-01-28T15:52:35.399Z,4.17
2023-01-28T15:55:03.027Z,3.00
2023-01-28T15:57:32.550Z,3.80
2023-01-28T16:00:13.295Z,4.07
2023-01-28T16:02:47.920Z,4.23
2023-01-28T16:05:28.113Z,4.33
2023-01-28T16:07:55.890Z,4.53
2023-01-28T16:10:28.339Z,3.80
2023-01-28T16:13:13.624Z,4.00
2023-01-28T16:15:46.913Z,4.33
2023-01-28T16:18:40.629Z,4.23
2023-01-28T16:21:10.626Z,4.67
2023-01-28T16:23:39.480Z,3.80
2023-01-28T16:26:27.358Z,4.93
2023-01-28T16:28:53.988Z,4.83
2023-01-28T16:31:21.256Z,4.47
2023-01-28T16:33:48.209Z,5.20
2023-01-28T16:36:16.964Z,5.00
2023-01-28T16:38:43.591Z,4.60
2023-01-28T16:41:21.718Z,4.57
2023-01-28T16:43:48.179Z,4.13
2023-01-28T16:46:14.699Z,4.13
2023-01-28T16:48:41.154Z,4.47
2023-01-28T16:51:15.964Z,4.40
2023-01-28T16:53:42.826Z,4.17
2023-01-28T16:56:36.016Z,4.10
2023-01-28T16:59:01.186Z,3.70
2023-01-28T17:01:27.769Z,4.27
2023-01-28T17:03:54.297Z,3.97
2023-01-28T17:06:20.863Z,3.93
2023-01-28T17:08:48.363Z,3.77
2023-01-28T17:11:15.084Z,4.23
2023-01-28T17:13:41.576Z,3.87
2023-01-28T17:16:08.438Z,4.10
2023-01-28T17:18:34.940Z,3.80
2023-01-28T17:21:03.245Z,4.17
2023-01-28T17:23:29.855Z,3.70
2023-01-28T17:25:56.772Z,4.30
2023-01-28T17:28:23.267Z,5.53
2023-01-28T17:30:49.730Z,4.20
2023-01-28T17:33:16.351Z,4.63
2023-01-28T17:35:46.251Z,5.57
2023-01-28T17:38:12.729Z,4.17
2023-01-28T17:40:39.161Z,4.03
2023-01-28T17:43:05.533Z,4.33
2023-01-28T17:45:32.429Z,5.03
2023-01-28T17:47:58.925Z,4.80
2023-01-28T17:50:25.524Z,4.90
2023-01-28T17:52:56.125Z,5.00
2023-01-28T17:55:23.704Z,5.00
2023-01-28T17:57:50.135Z,4.93
2023-01-28T18:00:17.839Z,5.30
2023-01-28T18:02:44.275Z,5.60
2023-01-28T18:05:12.275Z,4.53
2023-01-28T18:07:38.746Z,5.27
2023-01-28T18:10:06.249Z,5.03
2023-01-28T18:12:32.684Z,5.07
2023-01-28T18:14:59.110Z,5.57
2023-01-28T18:17:29.760Z,5.57
2023-01-28T18:19:57.141Z,5.33
2023-01-28T18:22:24.309Z,6.00
2023-01-28T18:24:50.923Z,5.30
2023-01-28T18:27:17.783Z,5.67
2023-01-28T18:29:44.222Z,6.63
2023-01-28T18:32:10.740Z,6.00
2023-01-28T18:34:37.199Z,5.80
2023-01-28T18:37:03.725Z,5.40
2023-01-28T18:39:31.003Z,5.80
2023-01-28T18:41:58.374Z,6.13
2023-01-28T18:44:26.712Z,6.20
2023-01-28T18:46:53.533Z,5.70
2023-01-28T18:49:20.067Z,5.73
2023-01-28T18:51:46.795Z,6.73
2023-01-28T18:54:15.729Z,5.97
2023-01-28T18:56:43.544Z,5.87
2023-01-28T18:59:12.816Z,6.00
2023-01-28T19:01:42.331Z,5.07
2023-01-28T19:04:09.901Z,5.03
2023-01-28T19:06:36.392Z,5.03
2023-01-28T19:09:08.478Z,6.03
2023-01-28T19:11:35.415Z,5.77
2023-01-28T19:14:01.983Z,5.43
2023-01-28T19:16:28.605Z,5.60
2023-01-28T19:18:57.862Z,6.00
2023-01-28T19:21:25.141Z,5.60
2023-01-28T19:23:56.668Z,6.13
2023-01-28T19:26:24.286Z,4.97
2023-01-28T19:28:50.772Z,5.53
2023-01-28T19:31:19.739Z,5.67
2023-01-28T19:33:47.613Z,5.90
2023-01-28T19:36:15.015Z,6.87
2023-01-28T19:38:42.525Z,5.63
2023-01-28T19:41:09.085Z,5.73
2023-01-28T19:43:35.978Z,4.90
2023-01-28T19:46:04.911Z,5.17
2023-01-28T19:48:32.323Z,4.97
2023-01-28T19:51:06.174Z,4.83
2023-01-28T19:53:34.125Z,7.10
2023-01-28T19:56:06.896Z,7.13
2023-01-28T19:58:34.786Z,5.07
2023-01-28T20:01:12.378Z,5.70
2023-01-28T20:03:39.271Z,5.97
2023-01-28T20:06:08.828Z,4.80
2023-01-28T20:08:35.285Z,5.57
2023-01-28T20:11:13.887Z,6.13
2023-01-28T20:13:42.766Z,5.37
2023-01-28T20:16:23.151Z,5.37
2023-01-28T20:18:57.364Z,5.77
2023-01-28T20:21:24.768Z,5.17
2023-01-28T20:23:53.897Z,5.63
2023-01-28T20:26:23.802Z,5.53
2023-01-28T20:28:51.362Z,5.50
2023-01-28T20:31:19.592Z,5.60
2023-01-28T20:33:46.418Z,6.53
2023-01-28T20:36:14.615Z,5.67
2023-01-28T20:38:43.821Z,5.63
2023-01-28T20:41:13.384Z,6.30
2023-01-28T20:43:42.371Z,5.83
2023-01-28T20:46:12.909Z,5.37
2023-01-28T20:48:39.565Z,5.80
2023-01-28T20:51:13.558Z,4.93
2023-01-28T20:53:40.997Z,5.43
2023-01-28T20:56:09.119Z,5.47
2023-01-28T20:58:35.986Z,4.80
2023-01-28T21:01:02.946Z,3.97
2023-01-28T21:03:29.410Z,5.10
2023-01-28T21:05:56.138Z,5.50
2023-01-28T21:08:23.223Z,5.43
2023-01-28T21:10:49.813Z,4.90
2023-01-28T21:13:16.460Z,4.87
2023-01-28T21:15:56.093Z,5.30
2023-01-28T21:18:23.386Z,5.17
2023-01-28T21:20:50.698Z,4.93
2023-01-28T21:23:17.149Z,5.10
2023-01-28T21:25:46.985Z,4.93
2023-01-28T21:28:14.128Z,4.47
2023-01-28T21:30:40.550Z,4.50
2023-01-28T21:33:07.094Z,4.87
2023-01-28T21:35:38.515Z,4.50
2023-01-28T21:38:05.961Z,4.13
2023-01-28T21:40:33.692Z,4.47
2023-01-28T21:43:00.176Z,4.07
2023-01-28T21:45:26.693Z,4.53
2023-01-28T21:47:54.225Z,4.47
2023-01-28T21:50:22.405Z,5.17
2023-01-28T21:52:49.635Z,4.70
2023-01-28T21:55:16.986Z,4.57
2023-01-28T21:57:43.854Z,4.53
2023-01-28T22:00:11.124Z,3.77
2023-01-28T22:02:37.555Z,4.70
2023-01-28T22:05:04.457Z,4.70
2023-01-28T22:07:30.977Z,4.00
2023-01-28T22:09:57.499Z,4.63
2023-01-28T22:12:24.085Z,4.63
2023-01-28T22:14:50.530Z,4.57
2023-01-28T22:17:19.033Z,4.20
2023-01-28T22:19:48.005Z,4.30
2023-01-28T22:22:15.313Z,4.33
2023-01-28T22:24:41.820Z,4.37
2023-01-28T22:27:08.431Z,4.43
2023-01-28T22:29:34.815Z,4.80
2023-01-28T22:32:04.125Z,5.17
2023-01-28T22:34:30.718Z,3.43
2023-01-28T22:36:57.484Z,4.00
2023-01-28T22:39:24.260Z,5.03
2023-01-28T22:41:50.694Z,3.47
2023-01-28T22:44:17.325Z,4.47
2023-01-28T22:46:43.824Z,4.20
2023-01-28T22:49:14.823Z,4.00
2023-01-28T22:51:41.688Z,4.90
2023-01-28T22:54:10.933Z,4.70
2023-01-28T22:56:37.872Z,4.80
2023-01-28T22:59:04.481Z,4.43
2023-01-28T23:01:31.793Z,4.20
2023-01-28T23:03:58.755Z,3.73
2023-01-28T23:06:26.781Z,3.90
2023-01-28T23:08:54.195Z,4.50
2023-01-28T23:11:27.526Z,4.53
2023-01-28T23:14:18.178Z,4.17
2023-01-28T23:17:03.670Z,4.30
2023-01-28T23:19:49.506Z,3.83
2023-01-28T23:22:43.425Z,4.80
2023-01-28T23:25:10.897Z,5.60
2023-01-28T23:27:37.481Z,4.40
2023-01-28T23:30:09.874Z,5.07
2023-01-28T23:32:41.488Z,5.20
2023-01-28T23:35:10.116Z,4.70
2023-01-28T23:37:36.931Z,4.77
2023-01-28T23:40:06.239Z,3.83
2023-01-28T23:42:32.706Z,4.13
2023-01-28T23:44:59.108Z,3.70
2023-01-28T23:47:25.677Z,3.90
2023-01-28T23:49:52.162Z,4.30
2023-01-28T23:52:18.566Z,3.77
2023-01-28T23:54:45.233Z,4.10
2023-01-28T23:57:11.661Z,4.37
2023-01-28T23:59:38.080Z,3.83
